sensor_id;sensor_type;location;lat;lon;timestamp;P1;durP1;ratioP1;P2;durP2;ratioP2
28605;SDS011;46498;49.968;7.754;2023-01-20T00:01:42;52.25;;;15.50;;
28605;SDS011;46498;49.968;7.754;2023-01-20T00:06:47;90.60;;;21.98;;
28605;SDS011;46498;49.968;7.754;2023-01-20T00:11:48;59.88;;;16.30;;
28605;SDS011;46498;49.968;7.754;2023-01-20T00:16:49;91.47;;;17.17;;
28605;SDS011;46498;49.968;7.754;2023-01-20T00:21:50;26.12;;;8.30;;
28605;SDS011;46498;49.968;7.754;2023-01-20T00:26:51;16.52;;;7.62;;
28605;SDS011;46498;49.968;7.754;2023-01-20T00:31:52;18.62;;;7.00;;
28605;SDS011;46498;49.968;7.754;2023-01-20T00:36:52;20.33;;;7.45;;
28605;SDS011;46498;49.968;7.754;2023-01-20T00:41:53;19.75;;;7.15;;
28605;SDS011;46498;49.968;7.754;2023-01-20T00:46:54;24.92;;;9.77;;
28605;SDS011;46498;49.968;7.754;2023-01-20T00:51:55;17.92;;;7.85;;
28605;SDS011;46498;49.968;7.754;2023-01-20T00:56:56;19.58;;;8.45;;
28605;SDS011;46498;49.968;7.754;2023-01-20T01:01:56;23.67;;;8.57;;
28605;SDS011;46498;49.968;7.754;2023-01-20T01:06:58;21.37;;;8.88;;
28605;SDS011;46498;49.968;7.754;2023-01-20T01:11:58;25.67;;;9.07;;
28605;SDS011;46498;49.968;7.754;2023-01-20T01:16:59;24.15;;;8.93;;
28605;SDS011;46498;49.968;7.754;2023-01-20T01:22:01;20.62;;;8.40;;
28605;SDS011;46498;49.968;7.754;2023-01-20T01:27:01;18.45;;;7.93;;
28605;SDS011;46498;49.968;7.754;2023-01-20T01:32:04;21.57;;;8.37;;
28605;SDS011;46498;49.968;7.754;2023-01-20T01:37:05;18.62;;;8.07;;
28605;SDS011;46498;49.968;7.754;2023-01-20T01:42:13;20.80;;;8.70;;
28605;SDS011;46498;49.968;7.754;2023-01-20T01:47:15;16.40;;;7.20;;
28605;SDS011;46498;49.968;7.754;2023-01-20T01:52:16;25.10;;;8.48;;
28605;SDS011;46498;49.968;7.754;2023-01-20T01:57:18;25.33;;;8.57;;
28605;SDS011;46498;49.968;7.754;2023-01-20T02:02:19;21.95;;;7.80;;
28605;SDS011;46498;49.968;7.754;2023-01-20T02:07:24;20.55;;;9.25;;
28605;SDS011;46498;49.968;7.754;2023-01-20T02:12:26;22.48;;;8.57;;
28605;SDS011;46498;49.968;7.754;2023-01-20T02:17:32;23.48;;;8.68;;
28605;SDS011;46498;49.968;7.754;2023-01-20T02:24:06;27.73;;;9.02;;
28605;SDS011;46498;49.968;7.754;2023-01-20T02:36:41;21.75;;;8.48;;
28605;SDS011;46498;49.968;7.754;2023-01-20T02:43:22;26.80;;;9.32;;
28605;SDS011;46498;49.968;7.754;2023-01-20T02:48:41;21.50;;;9.32;;
28605;SDS011;46498;49.968;7.754;2023-01-20T02:53:47;25.65;;;10.00;;
28605;SDS011;46498;49.968;7.754;2023-01-20T02:58:53;28.25;;;11.27;;
28605;SDS011;46498;49.968;7.754;2023-01-20T03:03:58;21.25;;;9.80;;
28605;SDS011;46498;49.968;7.754;2023-01-20T03:09:04;19.98;;;9.20;;
28605;SDS011;46498;49.968;7.754;2023-01-20T03:14:10;26.25;;;10.25;;
28605;SDS011;46498;49.968;7.754;2023-01-20T03:19:13;22.20;;;8.93;;
28605;SDS011;46498;49.968;7.754;2023-01-20T03:24:16;23.15;;;9.95;;
28605;SDS011;46498;49.968;7.754;2023-01-20T03:29:17;20.65;;;9.70;;
28605;SDS011;46498;49.968;7.754;2023-01-20T03:34:18;21.40;;;9.55;;
28605;SDS011;46498;49.968;7.754;2023-01-20T03:39:22;17.17;;;8.25;;
28605;SDS011;46498;49.968;7.754;2023-01-20T03:44:32;30.03;;;12.37;;
28605;SDS011;46498;49.968;7.754;2023-01-20T03:50:05;23.70;;;10.02;;
28605;SDS011;46498;49.968;7.754;2023-01-20T03:55:13;28.20;;;11.07;;
28605;SDS011;46498;49.968;7.754;2023-01-20T04:00:20;25.88;;;10.52;;
28605;SDS011;46498;49.968;7.754;2023-01-20T04:05:25;25.02;;;10.82;;
28605;SDS011;46498;49.968;7.754;2023-01-20T04:10:28;24.73;;;11.25;;
28605;SDS011;46498;49.968;7.754;2023-01-20T04:15:32;29.20;;;10.68;;
28605;SDS011;46498;49.968;7.754;2023-01-20T04:20:36;29.08;;;11.10;;
28605;SDS011;46498;49.968;7.754;2023-01-20T04:25:38;23.83;;;9.80;;
28605;SDS011;46498;49.968;7.754;2023-01-20T04:30:38;23.35;;;9.80;;
28605;SDS011;46498;49.968;7.754;2023-01-20T04:35:39;22.23;;;10.05;;
28605;SDS011;46498;49.968;7.754;2023-01-20T04:40:40;26.15;;;9.52;;
28605;SDS011;46498;49.968;7.754;2023-01-20T04:45:41;27.45;;;11.18;;
28605;SDS011;46498;49.968;7.754;2023-01-20T04:50:42;24.48;;;10.55;;
28605;SDS011;46498;49.968;7.754;2023-01-20T04:55:43;24.92;;;10.55;;
28605;SDS011;46498;49.968;7.754;2023-01-20T05:00:44;27.05;;;10.65;;
28605;SDS011;46498;49.968;7.754;2023-01-20T05:05:51;28.05;;;10.85;;
28605;SDS011;46498;49.968;7.754;2023-01-20T05:10:55;26.65;;;10.93;;
28605;SDS011;46498;49.968;7.754;2023-01-20T05:15:56;27.10;;;11.38;;
28605;SDS011;46498;49.968;7.754;2023-01-20T05:20:58;25.52;;;10.93;;
28605;SDS011;46498;49.968;7.754;2023-01-20T05:25:59;25.70;;;11.45;;
28605;SDS011;46498;49.968;7.754;2023-01-20T05:30:59;30.15;;;11.30;;
28605;SDS011;46498;49.968;7.754;2023-01-20T05:36:04;30.52;;;12.37;;
28605;SDS011;46498;49.968;7.754;2023-01-20T05:41:06;28.45;;;11.02;;
28605;SDS011;46498;49.968;7.754;2023-01-20T05:46:08;33.72;;;11.98;;
28605;SDS011;46498;49.968;7.754;2023-01-20T05:51:09;30.23;;;11.43;;
28605;SDS011;46498;49.968;7.754;2023-01-20T05:56:10;31.37;;;12.73;;
28605;SDS011;46498;49.968;7.754;2023-01-20T06:01:15;31.05;;;12.70;;
28605;SDS011;46498;49.968;7.754;2023-01-20T06:06:16;58.35;;;19.25;;
28605;SDS011;46498;49.968;7.754;2023-01-20T06:11:18;111.75;;;36.72;;
28605;SDS011;46498;49.968;7.754;2023-01-20T06:16:20;65.53;;;22.92;;
28605;SDS011;46498;49.968;7.754;2023-01-20T06:21:21;57.62;;;21.67;;
28605;SDS011;46498;49.968;7.754;2023-01-20T06:26:22;38.80;;;13.25;;
28605;SDS011;46498;49.968;7.754;2023-01-20T06:31:23;55.97;;;21.35;;
28605;SDS011;46498;49.968;7.754;2023-01-20T06:36:25;34.97;;;11.88;;
28605;SDS011;46498;49.968;7.754;2023-01-20T06:41:25;40.60;;;15.02;;
28605;SDS011;46498;49.968;7.754;2023-01-20T06:46:27;45.05;;;15.93;;
28605;SDS011;46498;49.968;7.754;2023-01-20T06:51:29;31.45;;;12.98;;
28605;SDS011;46498;49.968;7.754;2023-01-20T06:56:30;35.88;;;12.65;;
28605;SDS011;46498;49.968;7.754;2023-01-20T07:01:31;38.55;;;15.05;;
28605;SDS011;46498;49.968;7.754;2023-01-20T07:06:36;33.60;;;13.07;;
28605;SDS011;46498;49.968;7.754;2023-01-20T07:11:39;30.08;;;11.00;;
28605;SDS011;46498;49.968;7.754;2023-01-20T07:16:40;25.50;;;10.07;;
28605;SDS011;46498;49.968;7.754;2023-01-20T07:21:41;32.83;;;12.40;;
28605;SDS011;46498;49.968;7.754;2023-01-20T07:26:42;39.03;;;17.20;;
28605;SDS011;46498;49.968;7.754;2023-01-20T07:31:43;21.60;;;9.40;;
28605;SDS011;46498;49.968;7.754;2023-01-20T07:36:43;28.25;;;10.13;;
28605;SDS011;46498;49.968;7.754;2023-01-20T07:41:45;38.22;;;14.57;;
28605;SDS011;46498;49.968;7.754;2023-01-20T07:46:49;32.67;;;11.38;;
28605;SDS011;46498;49.968;7.754;2023-01-20T07:51:51;31.48;;;12.25;;
28605;SDS011;46498;49.968;7.754;2023-01-20T07:56:52;29.20;;;10.77;;
28605;SDS011;46498;49.968;7.754;2023-01-20T08:01:52;22.87;;;10.30;;
28605;SDS011;46498;49.968;7.754;2023-01-20T08:06:53;27.85;;;10.90;;
28605;SDS011;46498;49.968;7.754;2023-01-20T08:11:54;22.95;;;10.05;;
28605;SDS011;46498;49.968;7.754;2023-01-20T08:16:55;32.67;;;14.27;;
28605;SDS011;46498;49.968;7.754;2023-01-20T08:21:56;23.92;;;9.27;;
28605;SDS011;46498;49.968;7.754;2023-01-20T08:26:57;25.45;;;9.43;;
28605;SDS011;46498;49.968;7.754;2023-01-20T08:31:59;23.25;;;9.02;;
28605;SDS011;46498;49.968;7.754;2023-01-20T08:37:01;17.08;;;6.53;;
28605;SDS011;46498;49.968;7.754;2023-01-20T08:42:01;18.55;;;9.05;;
28605;SDS011;46498;49.968;7.754;2023-01-20T08:47:02;28.35;;;9.63;;
28605;SDS011;46498;49.968;7.754;2023-01-20T08:52:03;26.17;;;9.32;;
28605;SDS011;46498;49.968;7.754;2023-01-20T08:57:04;20.85;;;9.00;;
28605;SDS011;46498;49.968;7.754;2023-01-20T09:02:05;22.95;;;9.32;;
28605;SDS011;46498;49.968;7.754;2023-01-20T09:07:06;20.77;;;9.48;;
28605;SDS011;46498;49.968;7.754;2023-01-20T09:12:11;26.62;;;10.60;;
28605;SDS011;46498;49.968;7.754;2023-01-20T09:17:14;25.88;;;10.57;;
28605;SDS011;46498;49.968;7.754;2023-01-20T09:22:15;23.23;;;9.90;;
28605;SDS011;46498;49.968;7.754;2023-01-20T09:27:17;29.10;;;12.57;;
28605;SDS011;46498;49.968;7.754;2023-01-20T09:32:17;15.63;;;7.78;;
28605;SDS011;46498;49.968;7.754;2023-01-20T09:37:18;24.77;;;8.98;;
28605;SDS011;46498;49.968;7.754;2023-01-20T09:43:27;17.20;;;7.70;;
28605;SDS011;46498;49.968;7.754;2023-01-20T09:50:16;23.70;;;9.25;;
28605;SDS011;46498;49.968;7.754;2023-01-20T09:56:10;17.87;;;8.13;;
28605;SDS011;46498;49.968;7.754;2023-01-20T10:07:16;18.17;;;6.70;;
28605;SDS011;46498;49.968;7.754;2023-01-20T10:12:33;13.48;;;5.47;;
28605;SDS011;46498;49.968;7.754;2023-01-20T10:17:44;11.38;;;5.22;;
28605;SDS011;46498;49.968;7.754;2023-01-20T10:23:27;13.50;;;5.37;;
28605;SDS011;46498;49.968;7.754;2023-01-20T10:28:35;10.15;;;4.55;;
28605;SDS011;46498;49.968;7.754;2023-01-20T10:33:41;10.23;;;4.05;;
28605;SDS011;46498;49.968;7.754;2023-01-20T10:38:52;7.47;;;3.80;;
28605;SDS011;46498;49.968;7.754;2023-01-20T10:44:08;12.32;;;3.83;;
28605;SDS011;46498;49.968;7.754;2023-01-20T10:49:49;9.20;;;3.80;;
28605;SDS011;46498;49.968;7.754;2023-01-20T11:05:09;10.32;;;3.58;;
28605;SDS011;46498;49.968;7.754;2023-01-20T11:10:19;8.02;;;2.65;;
28605;SDS011;46498;49.968;7.754;2023-01-20T11:15:34;7.30;;;3.15;;
28605;SDS011;46498;49.968;7.754;2023-01-20T11:20:37;8.48;;;2.85;;
28605;SDS011;46498;49.968;7.754;2023-01-20T11:25:41;9.23;;;2.58;;
28605;SDS011;46498;49.968;7.754;2023-01-20T11:30:42;9.73;;;2.95;;
28605;SDS011;46498;49.968;7.754;2023-01-20T11:41:27;7.28;;;3.00;;
28605;SDS011;46498;49.968;7.754;2023-01-20T11:46:31;8.40;;;3.55;;
28605;SDS011;46498;49.968;7.754;2023-01-20T11:51:34;8.88;;;2.90;;
28605;SDS011;46498;49.968;7.754;2023-01-20T11:56:44;10.40;;;4.43;;
28605;SDS011;46498;49.968;7.754;2023-01-20T12:01:50;6.93;;;3.12;;
28605;SDS011;46498;49.968;7.754;2023-01-20T12:07:07;10.93;;;3.33;;
28605;SDS011;46498;49.968;7.754;2023-01-20T12:12:27;7.00;;;3.33;;
28605;SDS011;46498;49.968;7.754;2023-01-20T12:17:37;6.85;;;2.85;;
28605;SDS011;46498;49.968;7.754;2023-01-20T12:22:48;12.43;;;3.10;;
28605;SDS011;46498;49.968;7.754;2023-01-20T12:28:02;7.80;;;3.53;;
28605;SDS011;46498;49.968;7.754;2023-01-20T12:33:19;11.15;;;4.10;;
28605;SDS011;46498;49.968;7.754;2023-01-20T12:38:25;11.30;;;4.12;;
28605;SDS011;46498;49.968;7.754;2023-01-20T12:43:49;8.45;;;4.37;;
28605;SDS011;46498;49.968;7.754;2023-01-20T13:02:23;8.85;;;4.85;;
28605;SDS011;46498;49.968;7.754;2023-01-20T13:07:59;11.63;;;5.20;;
28605;SDS011;46498;49.968;7.754;2023-01-20T13:13:35;11.85;;;4.70;;
28605;SDS011;46498;49.968;7.754;2023-01-20T13:19:02;11.50;;;4.32;;
28605;SDS011;46498;49.968;7.754;2023-01-20T13:24:28;9.07;;;4.45;;
28605;SDS011;46498;49.968;7.754;2023-01-20T13:29:39;9.93;;;4.93;;
28605;SDS011;46498;49.968;7.754;2023-01-20T13:34:43;14.02;;;5.30;;
28605;SDS011;46498;49.968;7.754;2023-01-20T13:39:44;12.37;;;4.75;;
28605;SDS011;46498;49.968;7.754;2023-01-20T13:44:47;15.67;;;5.53;;
28605;SDS011;46498;49.968;7.754;2023-01-20T13:50:23;13.82;;;5.80;;
28605;SDS011;46498;49.968;7.754;2023-01-20T14:01:02;13.20;;;5.50;;
28605;SDS011;46498;49.968;7.754;2023-01-20T14:06:06;16.60;;;6.12;;
28605;SDS011;46498;49.968;7.754;2023-01-20T14:11:21;14.98;;;6.82;;
28605;SDS011;46498;49.968;7.754;2023-01-20T14:16:27;21.40;;;8.18;;
28605;SDS011;46498;49.968;7.754;2023-01-20T14:21:38;18.50;;;8.32;;
28605;SDS011;46498;49.968;7.754;2023-01-20T14:26:41;19.45;;;8.63;;
28605;SDS011;46498;49.968;7.754;2023-01-20T14:31:42;20.40;;;8.80;;
28605;SDS011;46498;49.968;7.754;2023-01-20T14:36:46;21.17;;;8.73;;
28605;SDS011;46498;49.968;7.754;2023-01-20T14:41:54;19.77;;;8.70;;
28605;SDS011;46498;49.968;7.754;2023-01-20T14:46:58;30.33;;;11.07;;
28605;SDS011;46498;49.968;7.754;2023-01-20T14:52:01;29.05;;;12.00;;
28605;SDS011;46498;49.968;7.754;2023-01-20T15:03:28;23.80;;;11.50;;
28605;SDS011;46498;49.968;7.754;2023-01-20T15:08:43;25.25;;;10.77;;
28605;SDS011;46498;49.968;7.754;2023-01-20T15:14:06;26.48;;;11.38;;
28605;SDS011;46498;49.968;7.754;2023-01-20T15:19:27;25.35;;;11.12;;
28605;SDS011;46498;49.968;7.754;2023-01-20T15:24:30;22.08;;;9.35;;
28605;SDS011;46498;49.968;7.754;2023-01-20T15:29:36;20.40;;;8.25;;
28605;SDS011;46498;49.968;7.754;2023-01-20T15:34:37;16.12;;;7.97;;
28605;SDS011;46498;49.968;7.754;2023-01-20T15:39:38;17.30;;;8.00;;
28605;SDS011;46498;49.968;7.754;2023-01-20T15:44:39;19.23;;;8.48;;
28605;SDS011;46498;49.968;7.754;2023-01-20T15:49:40;17.30;;;7.90;;
28605;SDS011;46498;49.968;7.754;2023-01-20T15:54:41;14.20;;;6.90;;
28605;SDS011;46498;49.968;7.754;2023-01-20T15:59:42;28.95;;;12.55;;
28605;SDS011;46498;49.968;7.754;2023-01-20T16:04:45;22.90;;;10.05;;
28605;SDS011;46498;49.968;7.754;2023-01-20T16:09:47;16.92;;;7.95;;
28605;SDS011;46498;49.968;7.754;2023-01-20T16:14:48;18.35;;;8.00;;
28605;SDS011;46498;49.968;7.754;2023-01-20T16:19:49;14.35;;;7.18;;
28605;SDS011;46498;49.968;7.754;2023-01-20T16:24:50;17.10;;;7.93;;
28605;SDS011;46498;49.968;7.754;2023-01-20T16:29:51;16.90;;;7.30;;
28605;SDS011;46498;49.968;7.754;2023-01-20T16:34:52;16.08;;;6.90;;
28605;SDS011;46498;49.968;7.754;2023-01-20T16:39:53;15.05;;;6.78;;
28605;SDS011;46498;49.968;7.754;2023-01-20T16:44:54;14.85;;;6.93;;
28605;SDS011;46498;49.968;7.754;2023-01-20T16:49:55;18.33;;;7.00;;
28605;SDS011;46498;49.968;7.754;2023-01-20T16:54:55;11.68;;;6.32;;
28605;SDS011;46498;49.968;7.754;2023-01-20T16:59:56;11.15;;;5.57;;
28605;SDS011;46498;49.968;7.754;2023-01-20T17:04:57;8.80;;;4.93;;
28605;SDS011;46498;49.968;7.754;2023-01-20T17:09:58;9.25;;;4.85;;
28605;SDS011;46498;49.968;7.754;2023-01-20T17:14:58;9.82;;;4.95;;
28605;SDS011;46498;49.968;7.754;2023-01-20T17:19:59;9.52;;;4.87;;
28605;SDS011;46498;49.968;7.754;2023-01-20T17:25:01;9.57;;;4.82;;
28605;SDS011;46498;49.968;7.754;2023-01-20T17:30:03;8.25;;;4.75;;
28605;SDS011;46498;49.968;7.754;2023-01-20T17:40:18;7.85;;;3.55;;
28605;SDS011;46498;49.968;7.754;2023-01-20T17:45:19;8.75;;;4.25;;
28605;SDS011;46498;49.968;7.754;2023-01-20T17:50:20;9.25;;;4.78;;
28605;SDS011;46498;49.968;7.754;2023-01-20T17:55:21;6.80;;;3.40;;
28605;SDS011;46498;49.968;7.754;2023-01-20T18:00:22;6.35;;;3.15;;
28605;SDS011;46498;49.968;7.754;2023-01-20T18:05:23;6.93;;;2.85;;
28605;SDS011;46498;49.968;7.754;2023-01-20T18:10:24;4.62;;;2.70;;
28605;SDS011;46498;49.968;7.754;2023-01-20T18:15:25;6.68;;;3.40;;
28605;SDS011;46498;49.968;7.754;2023-01-20T18:20:26;6.25;;;3.55;;
28605;SDS011;46498;49.968;7.754;2023-01-20T18:25:27;7.93;;;4.32;;
28605;SDS011;46498;49.968;7.754;2023-01-20T18:30:29;7.53;;;4.17;;
28605;SDS011;46498;49.968;7.754;2023-01-20T18:35:30;9.38;;;4.50;;
28605;SDS011;46498;49.968;7.754;2023-01-20T18:40:31;6.15;;;3.62;;
28605;SDS011;46498;49.968;7.754;2023-01-20T18:45:32;6.95;;;2.92;;
28605;SDS011;46498;49.968;7.754;2023-01-20T18:50:32;4.28;;;2.58;;
28605;SDS011;46498;49.968;7.754;2023-01-20T18:55:34;4.75;;;2.20;;
28605;SDS011;46498;49.968;7.754;2023-01-20T19:00:35;4.35;;;1.90;;
28605;SDS011;46498;49.968;7.754;2023-01-20T19:05:36;2.53;;;1.60;;
28605;SDS011;46498;49.968;7.754;2023-01-20T19:10:37;2.45;;;1.27;;
28605;SDS011;46498;49.968;7.754;2023-01-20T19:15:37;3.25;;;1.55;;
28605;SDS011;46498;49.968;7.754;2023-01-20T19:20:38;6.18;;;1.60;;
28605;SDS011;46498;49.968;7.754;2023-01-20T19:25:40;5.65;;;1.75;;
28605;SDS011;46498;49.968;7.754;2023-01-20T19:30:40;2.47;;;1.42;;
28605;SDS011;46498;49.968;7.754;2023-01-20T19:35:41;5.57;;;2.25;;
28605;SDS011;46498;49.968;7.754;2023-01-20T19:40:43;3.53;;;1.73;;
28605;SDS011;46498;49.968;7.754;2023-01-20T19:45:46;2.47;;;1.35;;
28605;SDS011;46498;49.968;7.754;2023-01-20T19:50:47;2.55;;;1.37;;
28605;SDS011;46498;49.968;7.754;2023-01-20T19:55:48;2.83;;;1.55;;
28605;SDS011;46498;49.968;7.754;2023-01-20T20:00:49;4.12;;;1.70;;
28605;SDS011;46498;49.968;7.754;2023-01-20T20:05:50;3.20;;;1.58;;
28605;SDS011;46498;49.968;7.754;2023-01-20T20:10:51;4.00;;;1.67;;
28605;SDS011;46498;49.968;7.754;2023-01-20T20:15:58;4.15;;;2.22;;
28605;SDS011;46498;49.968;7.754;2023-01-20T20:21:00;5.45;;;2.58;;
28605;SDS011;46498;49.968;7.754;2023-01-20T20:26:01;4.43;;;2.40;;
28605;SDS011;46498;49.968;7.754;2023-01-20T20:31:03;4.87;;;2.92;;
28605;SDS011;46498;49.968;7.754;2023-01-20T20:36:06;4.93;;;2.85;;
28605;SDS011;46498;49.968;7.754;2023-01-20T20:41:08;8.18;;;3.47;;
28605;SDS011;46498;49.968;7.754;2023-01-20T20:46:09;7.22;;;2.72;;
28605;SDS011;46498;49.968;7.754;2023-01-20T20:51:14;9.40;;;3.30;;
28605;SDS011;46498;49.968;7.754;2023-01-20T20:56:16;10.27;;;4.53;;
28605;SDS011;46498;49.968;7.754;2023-01-20T21:01:17;9.25;;;4.45;;
28605;SDS011;46498;49.968;7.754;2023-01-20T21:06:18;7.93;;;4.40;;
28605;SDS011;46498;49.968;7.754;2023-01-20T21:11:21;9.43;;;4.40;;
28605;SDS011;46498;49.968;7.754;2023-01-20T21:16:24;16.58;;;5.50;;
28605;SDS011;46498;49.968;7.754;2023-01-20T21:21:27;99.95;;;10.25;;
28605;SDS011;46498;49.968;7.754;2023-01-20T21:26:31;175.05;;;15.70;;
28605;SDS011;46498;49.968;7.754;2023-01-20T21:31:32;50.05;;;9.07;;
28605;SDS011;46498;49.968;7.754;2023-01-20T21:36:34;247.35;;;17.42;;
28605;SDS011;46498;49.968;7.754;2023-01-20T21:41:41;393.80;;;23.15;;
28605;SDS011;46498;49.968;7.754;2023-01-20T21:46:42;23.52;;;9.63;;
28605;SDS011;46498;49.968;7.754;2023-01-20T21:51:43;103.75;;;13.57;;
28605;SDS011;46498;49.968;7.754;2023-01-20T21:57:02;344.70;;;26.15;;
28605;SDS011;46498;49.968;7.754;2023-01-20T22:02:04;231.15;;;22.13;;
28605;SDS011;46498;49.968;7.754;2023-01-20T22:07:05;285.90;;;19.20;;
28605;SDS011;46498;49.968;7.754;2023-01-20T22:12:06;249.37;;;22.13;;
28605;SDS011;46498;49.968;7.754;2023-01-20T22:17:08;194.50;;;17.92;;
28605;SDS011;46498;49.968;7.754;2023-01-20T22:22:10;49.33;;;11.73;;
28605;SDS011;46498;49.968;7.754;2023-01-20T22:27:10;19.67;;;8.35;;
28605;SDS011;46498;49.968;7.754;2023-01-20T22:32:11;10.82;;;5.35;;
28605;SDS011;46498;49.968;7.754;2023-01-20T22:37:12;9.75;;;5.25;;
28605;SDS011;46498;49.968;7.754;2023-01-20T22:42:13;11.23;;;4.40;;
28605;SDS011;46498;49.968;7.754;2023-01-20T22:47:14;9.32;;;4.87;;
28605;SDS011;46498;49.968;7.754;2023-01-20T22:52:14;9.18;;;5.15;;
28605;SDS011;46498;49.968;7.754;2023-01-20T22:57:15;11.05;;;5.87;;
28605;SDS011;46498;49.968;7.754;2023-01-20T23:02:16;12.88;;;5.47;;
28605;SDS011;46498;49.968;7.754;2023-01-20T23:07:17;15.02;;;6.75;;
28605;SDS011;46498;49.968;7.754;2023-01-20T23:12:18;13.70;;;6.62;;
28605;SDS011;46498;49.968;7.754;2023-01-20T23:17:19;10.93;;;5.72;;
28605;SDS011;46498;49.968;7.754;2023-01-20T23:22:19;9.75;;;5.65;;
28605;SDS011;46498;49.968;7.754;2023-01-20T23:27:20;10.82;;;5.65;;
28605;SDS011;46498;49.968;7.754;2023-01-20T23:32:21;12.32;;;5.53;;
28605;SDS011;46498;49.968;7.754;2023-01-20T23:37:22;9.15;;;5.40;;
28605;SDS011;46498;49.968;7.754;2023-01-20T23:42:23;13.65;;;7.00;;
28605;SDS011;46498;49.968;7.754;2023-01-20T23:47:24;9.25;;;4.40;;
28605;SDS011;46498;49.968;7.754;2023-01-20T23:52:24;5.40;;;3.45;;
28605;SDS011;46498;49.968;7.754;2023-01-20T23:57:25;6.30;;;3.70;;
